.
WxDataArchive / Data Records for 2010-05-07
2010-05-06 May 2010 2010-05-08

Data Records for Friday, 07 May 2010

Time	Temp	Chill	HIndex	Humid	Dewpt	 Wind 	HiWind	WindDir	Rain 	Barom 
-----	----	-----	------	-----	-----	------	------	-------	-----	----- 
00:00	52.2	52.2	52.2	75	44.5	0	0	---	0.00	29.993 
00:05	52.0	52.0	52.0	76	44.7	0	0	---	0.00	29.993 
00:10	51.7	51.7	51.7	77	44.7	0	0	---	0.00	29.993 
00:15	51.4	51.4	51.4	78	44.8	0	0	---	0.00	29.988 
00:20	51.3	51.3	51.3	79	45.0	0	0	---	0.00	29.988 
00:25	51.1	51.1	51.1	79	44.8	0	0	---	0.00	29.988 
00:30	51.0	51.0	51.0	80	45.0	0	0	---	0.00	29.978 
00:35	50.8	50.8	50.8	81	45.2	0	0	---	0.00	29.978 
00:40	50.7	50.7	50.7	81	45.1	0	0	---	0.00	29.978 
00:45	50.7	50.7	50.7	82	45.4	0	0	---	0.00	29.980 
00:50	50.7	50.7	50.7	82	45.4	0	0	---	0.00	29.980 
00:55	50.5	50.5	50.5	82	45.2	0	0	---	0.00	29.980 
01:00	50.5	50.5	50.5	82	45.2	0	0	---	0.00	29.977 
01:05	50.5	50.5	50.5	82	45.2	0	0	---	0.00	29.977 
01:10	50.4	50.4	50.4	82	45.1	0	0	---	0.00	29.977 
01:15	50.5	50.5	50.5	82	45.2	0	0	---	0.00	29.978 
01:20	50.5	50.5	50.5	82	45.2	0	0	---	0.00	29.978 
01:25	50.4	50.4	50.4	82	45.1	0	0	---	0.00	29.978 
01:30	50.4	50.4	50.4	82	45.1	0	0	---	0.00	29.978 
01:35	50.4	50.4	50.4	82	45.1	0	0	---	0.00	29.978 
01:40	50.4	50.4	50.4	82	45.1	0	0	---	0.00	29.978 
01:45	50.2	50.2	50.2	82	44.9	0	0	---	0.00	29.974 
01:50	50.2	50.2	50.2	81	44.6	0	0	---	0.00	29.974 
01:55	50.1	50.1	50.1	82	44.8	0	0	---	0.00	29.974 
02:00	50.1	50.1	50.1	82	44.8	0	1	22	0.00	29.960 
02:05	50.4	50.4	50.4	80	44.5	0	2	22	0.00	29.960 
02:10	51.0	51.0	51.0	77	44.0	0	2	22	0.00	29.960 
02:15	51.4	51.4	51.4	77	44.4	0	2	22	0.00	29.948 
02:20	51.7	51.7	51.7	75	44.0	0	2	22	0.00	29.948 
02:25	52.0	52.0	52.0	75	44.3	1	2	22	0.00	29.948 
02:30	52.2	52.2	52.2	74	44.2	1	3	22	0.00	29.943 
02:35	52.2	52.2	52.2	75	44.5	1	2	90	0.00	29.943 
02:40	52.5	52.5	52.5	74	44.5	1	2	90	0.00	29.943 
02:45	52.5	52.5	52.5	75	44.8	0	1	90	0.00	29.936 
02:50	52.5	52.5	52.5	75	44.8	0	1	90	0.00	29.936 
02:55	52.6	52.6	52.6	75	44.9	0	1	90	0.00	29.936 
03:00	52.6	52.6	52.6	75	44.9	0	2	90	0.00	29.936 
03:05	52.9	52.9	52.9	74	44.8	0	2	90	0.00	29.936 
03:10	53.2	53.2	53.2	73	44.8	1	3	90	0.00	29.936 
03:15	53.5	53.5	53.5	73	45.1	1	4	90	0.00	29.930 
03:20	53.6	53.6	53.6	73	45.2	1	3	90	0.00	29.930 
03:25	53.8	53.8	53.8	73	45.3	1	3	112	0.00	29.930 
03:30	53.8	53.8	53.8	73	45.3	1	2	112	0.00	29.917 
03:35	53.6	53.6	53.6	73	45.2	1	3	112	0.00	29.917 
03:40	53.6	53.6	53.6	74	45.5	1	2	112	0.00	29.917 
03:45	53.5	53.5	53.5	74	45.4	0	2	112	0.00	29.915 
03:50	53.5	53.5	53.5	74	45.4	0	2	112	0.00	29.915 
03:55	53.3	53.3	53.3	74	45.2	0	3	112	0.00	29.915 
04:00	53.3	53.3	53.3	74	45.2	0	2	112	0.00	29.912 
04:05	53.3	53.3	53.3	75	45.6	0	3	112	0.00	29.912 
04:10	53.2	53.2	53.2	76	45.8	0	2	112	0.00	29.912 
04:15	53.2	53.2	53.2	77	46.2	0	1	112	0.00	29.911 
04:20	53.1	53.1	53.1	77	46.1	1	3	112	0.00	29.911 
04:25	53.1	53.1	53.1	77	46.1	1	4	112	0.00	29.911 
04:30	53.1	53.1	53.1	78	46.4	1	4	112	0.00	29.904 
04:35	52.9	52.9	52.9	78	46.2	1	4	112	0.00	29.904 
04:40	52.8	52.8	52.8	78	46.1	1	4	112	0.00	29.904 
04:45	52.8	52.8	52.8	79	46.5	1	4	90	0.00	29.906 
04:50	52.8	52.8	52.8	79	46.5	2	4	112	0.00	29.906 
04:55	52.8	52.8	52.8	79	46.5	1	3	112	0.00	29.906 
05:00	52.9	52.9	52.9	80	46.9	1	3	112	0.00	29.908 
05:05	52.9	52.9	52.9	80	46.9	1	3	112	0.00	29.908 
05:10	53.1	53.1	53.1	80	47.1	1	4	112	0.00	29.908 
05:15	53.1	53.1	53.1	80	47.1	1	3	112	0.00	29.914 
05:20	53.1	53.1	53.1	81	47.4	1	2	112	0.00	29.914 
05:25	53.2	53.2	53.2	80	47.2	2	5	112	0.00	29.914 
05:30	53.2	53.2	53.2	79	46.9	1	5	90	0.00	29.911 
05:35	53.3	53.3	53.3	78	46.6	1	3	112	0.00	29.911 
05:40	53.5	53.5	53.5	77	46.5	0	2	112	0.00	29.911 
05:45	53.8	53.8	53.8	77	46.8	0	2	112	0.00	29.923 
05:50	53.8	53.8	53.8	77	46.8	0	4	112	0.00	29.923 
05:55	53.9	53.9	53.9	77	46.9	0	2	90	0.00	29.923 
06:00	54.1	54.1	54.1	75	46.4	1	4	292	0.00	29.940 
06:05	54.1	54.1	54.1	74	46.0	0	3	0	0.00	29.940 
06:10	54.1	54.1	54.1	75	46.4	1	10	112	0.00	29.940 
06:15	53.9	53.9	53.9	77	46.9	2	7	90	0.00	29.926 
06:20	53.5	53.5	53.5	78	46.8	2	7	68	0.00	29.926 
06:25	53.2	53.2	53.2	79	46.9	0	3	112	0.01	29.926 
06:30	52.8	52.8	52.8	82	47.5	3	7	90	0.00	29.922 
06:35	52.2	52.2	52.2	84	47.5	4	8	90	0.03	29.922 
06:40	51.6	51.6	51.6	86	47.5	4	10	90	0.01	29.922 
06:45	51.3	51.3	51.3	88	47.9	4	7	112	0.01	29.896 
06:50	51.1	51.1	51.1	88	47.7	3	6	112	0.01	29.896 
06:55	51.0	51.0	51.0	89	47.9	2	6	90	0.02	29.896 
07:00	50.8	50.8	50.8	90	48.0	4	10	90	0.00	29.877 
07:05	50.7	50.7	50.7	90	47.9	5	10	90	0.02	29.877 
07:10	50.5	50.5	50.5	91	48.0	2	6	112	0.02	29.877 
07:15	50.5	50.5	50.5	91	48.0	1	6	112	0.01	29.902 
07:20	50.5	50.5	50.5	91	48.0	3	7	90	0.00	29.902 
07:25	50.5	50.5	50.5	92	48.3	1	5	45	0.00	29.902 
07:30	50.5	50.5	50.5	92	48.3	1	5	112	0.01	29.883 
07:35	50.5	50.5	50.5	92	48.3	2	4	112	0.01	29.883 
07:40	50.5	50.5	50.5	92	48.3	1	4	90	0.00	29.883 
07:45	50.5	50.5	50.5	92	48.3	1	4	112	0.02	29.900 
07:50	50.4	50.4	50.4	92	48.2	3	6	112	0.13	29.900 
07:55	50.4	50.4	50.4	93	48.5	3	6	90	0.01	29.900 
08:00	50.4	50.4	50.4	93	48.5	2	6	68	0.00	29.862 
08:05	50.4	50.4	50.4	93	48.5	1	4	90	0.00	29.862 
08:10	50.4	50.4	50.4	93	48.5	2	4	90	0.00	29.862 
08:15	50.5	50.5	50.5	93	48.6	2	5	90	0.00	29.864 
08:20	50.5	50.5	50.5	93	48.6	3	5	90	0.00	29.864 
08:25	50.5	50.5	50.5	93	48.6	3	7	90	0.00	29.864 
08:30	50.5	50.5	50.5	93	48.6	3	5	112	0.00	29.847 
08:35	50.5	50.5	50.5	93	48.6	3	9	112	0.00	29.847 
08:40	50.7	50.7	50.7	92	48.5	3	6	90	0.00	29.847 
08:45	50.8	50.8	50.8	92	48.6	2	6	90	0.00	29.859 
08:50	51.0	51.0	51.0	91	48.5	2	6	68	0.00	29.859 
08:55	51.1	51.1	51.1	91	48.6	2	6	112	0.00	29.859 
09:00	51.1	51.1	51.1	91	48.6	1	2	112	0.00	29.878 
09:05	51.3	51.3	51.3	91	48.8	0	1	112	0.00	29.878 
09:10	51.3	51.3	51.3	91	48.8	0	5	135	0.00	29.878 
09:15	51.3	51.3	51.3	92	49.1	1	5	135	0.00	29.876 
09:20	51.3	51.3	51.3	92	49.1	2	9	90	0.00	29.876 
09:25	51.4	51.4	51.4	92	49.2	2	9	112	0.00	29.876 
09:30	51.7	51.7	51.7	92	49.5	2	5	112	0.00	29.860 
09:35	51.9	51.9	51.9	91	49.4	3	9	90	0.00	29.860 
09:40	52.0	52.0	52.0	91	49.5	3	7	90	0.00	29.860 
09:45	52.2	52.2	52.2	90	49.4	3	6	90	0.00	29.842 
09:50	52.2	52.2	52.2	89	49.1	3	8	90	0.00	29.842 
09:55	52.8	52.8	52.8	89	49.6	3	8	112	0.00	29.842 
10:00	53.1	53.1	53.1	88	49.6	3	10	90	0.00	29.826 
10:05	53.5	53.5	53.5	87	49.7	3	9	90	0.00	29.826 
10:10	53.5	53.5	53.5	85	49.1	5	11	90	0.00	29.826 
10:15	53.5	53.5	53.5	84	48.8	4	12	90	0.00	29.830 
10:20	53.6	53.6	53.6	85	49.2	3	6	90	0.00	29.830 
10:25	53.8	53.8	53.8	85	49.4	2	5	68	0.00	29.830 
10:30	53.6	53.6	53.6	83	48.6	3	10	112	0.00	29.826 
10:35	53.8	53.8	53.8	81	48.1	3	6	90	0.00	29.826 
10:40	54.1	54.1	54.1	82	48.7	2	6	90	0.00	29.826 
10:45	54.2	54.2	54.2	80	48.2	3	11	90	0.00	29.824 
10:50	54.4	54.4	54.4	80	48.4	4	11	90	0.00	29.824 
10:55	54.8	54.8	54.8	79	48.4	3	7	68	0.00	29.824 
11:00	55.0	55.0	55.0	78	48.3	4	11	112	0.00	29.807 
11:05	55.3	55.3	55.3	78	48.6	5	11	112	0.00	29.807 
11:10	55.9	55.9	55.9	79	49.5	4	7	90	0.00	29.807 
11:15	55.9	55.9	55.9	77	48.8	5	10	90	0.00	29.780 
11:20	55.9	55.9	55.9	77	48.8	4	9	112	0.00	29.780 
11:25	56.2	56.2	56.2	77	49.1	3	7	90	0.00	29.780 
11:30	56.2	56.2	56.2	78	49.4	4	10	112	0.00	29.776 
11:35	56.3	56.3	56.3	78	49.5	4	9	90	0.00	29.776 
11:40	56.5	56.5	56.5	78	49.7	4	11	90	0.00	29.776 
11:45	56.9	56.9	56.9	77	49.8	4	9	112	0.00	29.744 
11:50	57.6	57.6	57.6	76	50.1	4	7	112	0.00	29.744 
11:55	58.4	58.4	58.4	75	50.5	3	9	112	0.00	29.744 
12:00	58.7	58.7	58.7	74	50.4	3	6	112	0.00	29.744 
12:05	59.3	59.3	59.3	75	51.4	3	7	90	0.00	29.744 
12:10	60.1	60.1	60.1	74	51.8	3	7	112	0.00	29.744 
12:15	60.7	60.7	60.7	71	51.2	5	11	112	0.00	29.712 
12:20	61.3	61.3	61.3	71	51.8	5	11	90	0.00	29.712 
12:25	62.0	62.0	62.0	70	52.1	5	10	90	0.00	29.712 
12:30	62.6	62.6	62.6	69	52.3	4	9	112	0.00	29.679 
12:35	63.1	63.1	63.1	69	52.8	5	11	90	0.00	29.679 
12:40	63.7	63.7	63.7	69	53.3	4	10	90	0.00	29.679 
12:45	64.2	64.2	64.2	65	52.2	5	11	90	0.00	29.678 
12:50	64.7	64.7	64.7	66	53.1	4	10	112	0.00	29.678 
12:55	65.2	65.2	65.2	65	53.1	4	10	112	0.00	29.678 
13:00	65.6	65.6	65.6	66	53.9	4	7	90	0.00	29.668 
13:05	66.4	66.4	66.4	63	53.4	3	7	90	0.00	29.668 
13:10	66.8	66.8	66.8	64	54.2	4	8	90	0.00	29.668 
13:15	67.1	67.1	67.1	64	54.5	3	7	90	0.00	29.649 
13:20	67.6	67.6	67.6	62	54.1	4	11	90	0.00	29.649 
13:25	68.1	68.1	68.1	63	55.0	3	7	90	0.00	29.649 
13:30	68.8	68.8	68.8	62	55.2	3	9	90	0.00	29.626 
13:35	69.1	69.1	69.1	64	56.4	4	10	90	0.00	29.626 
13:40	69.9	69.9	69.9	63	56.7	3	9	112	0.00	29.626 
13:45	70.4	70.4	70.4	61	56.3	3	9	90	0.00	29.608 
13:50	71.1	71.1	71.1	62	57.4	2	4	90	0.00	29.608 
13:55	71.6	71.6	71.6	61	57.4	2	5	112	0.00	29.608 
14:00	71.8	71.8	71.8	61	57.6	3	9	90	0.00	29.592 
14:05	72.0	72.0	72.0	59	56.9	3	7	90	0.00	29.592 
14:10	72.5	72.5	72.5	61	58.3	1	5	90	0.00	29.592 
14:15	73.0	73.0	73.0	61	58.7	1	4	90	0.00	29.584 
14:20	73.7	73.7	73.7	60	58.9	1	5	90	0.00	29.584 
14:25	74.2	74.2	74.2	61	59.9	1	4	68	0.00	29.584 
14:30	74.4	74.4	74.4	61	60.1	1	3	68	0.00	29.572 
14:35	74.4	74.4	74.4	61	60.1	0	4	90	0.00	29.572 
14:40	74.4	74.4	74.4	60	59.6	0	3	68	0.00	29.572 
14:45	74.6	74.6	74.6	60	59.8	1	2	248	0.00	29.569 
14:50	74.6	74.6	74.6	60	59.8	0	1	112	0.00	29.569 
14:55	74.2	74.2	74.2	61	59.9	0	2	112	0.00	29.569 
15:00	73.9	73.9	73.9	61	59.6	0	2	112	0.00	29.567 
15:05	74.0	74.0	74.0	62	60.1	0	1	112	0.00	29.567 
15:10	75.4	75.4	77.5	62	61.5	0	1	112	0.00	29.567 
15:15	76.0	76.0	78.0	59	60.6	0	3	45	0.00	29.557 
15:20	76.5	76.5	78.4	57	60.1	0	1	45	0.00	29.557 
15:25	76.8	76.8	78.6	56	59.9	0	1	45	0.00	29.557 
15:30	77.0	77.0	78.7	55	59.6	0	2	45	0.00	29.553 
15:35	76.8	76.8	78.6	58	60.9	1	4	68	0.00	29.553 
15:40	76.8	76.8	78.6	56	59.9	0	3	68	0.00	29.553 
15:45	77.4	77.4	78.9	53	58.9	1	3	292	0.00	29.551 
15:50	77.9	77.9	79.3	53	59.4	1	5	248	0.00	29.551 
15:55	78.1	78.1	79.5	53	59.6	2	6	270	0.00	29.551 
16:00	78.5	78.5	79.7	52	59.4	2	5	270	0.00	29.541 
16:05	78.5	78.5	79.7	52	59.4	1	3	292	0.00	29.541 
16:10	78.5	78.5	79.6	51	58.8	1	4	292	0.00	29.541 
16:15	78.3	78.3	79.4	50	58.1	2	5	248	0.00	29.539 
16:20	78.3	78.3	79.4	49	57.5	2	6	270	0.00	29.539 
16:25	78.5	78.5	79.6	50	58.3	2	6	248	0.00	29.539 
16:30	78.8	78.8	79.8	50	58.6	3	7	248	0.00	29.523 
16:35	79.6	79.6	80.4	49	58.7	3	8	270	0.00	29.523 
16:40	79.9	79.9	80.7	50	59.6	2	5	248	0.00	29.523 
16:45	80.1	80.1	80.9	50	59.8	2	6	270	0.00	29.505 
16:50	79.9	79.9	80.6	49	59.0	2	10	248	0.00	29.505 
16:55	79.8	79.8	80.6	50	59.5	2	6	270	0.00	29.505 
17:00	79.6	79.6	80.5	50	59.3	2	5	248	0.00	29.490 
17:05	79.2	79.2	80.1	50	58.9	2	5	248	0.00	29.490 
17:10	78.8	78.8	79.8	50	58.6	3	7	248	0.00	29.490 
17:15	78.6	78.6	79.7	50	58.4	2	5	225	0.00	29.490 
17:20	78.6	78.6	79.7	51	58.9	2	6	270	0.00	29.490 
17:25	78.6	78.6	79.7	50	58.4	2	7	270	0.00	29.490 
17:30	78.6	78.6	79.7	50	58.4	2	5	248	0.00	29.488 
17:35	78.5	78.5	79.6	50	58.3	3	10	248	0.00	29.488 
17:40	78.5	78.5	79.6	50	58.3	4	11	248	0.00	29.488 
17:45	78.5	78.5	79.6	50	58.3	4	8	248	0.00	29.490 
17:50	77.6	77.6	79.2	56	60.6	3	6	248	0.00	29.490 
17:55	76.0	76.0	78.0	61	61.6	3	6	248	0.01	29.490 
18:00	72.7	72.7	72.7	70	62.3	5	14	270	0.00	29.523 
18:05	69.6	69.6	69.6	78	62.4	2	7	248	0.01	29.523 
18:10	68.3	68.3	68.3	81	62.2	1	4	338	0.00	29.523 
18:15	68.1	68.1	68.1	84	63.1	2	4	248	0.03	29.526 
18:20	67.8	67.8	67.8	87	63.8	3	9	270	0.02	29.526 
18:25	67.6	67.6	67.6	89	64.2	3	5	292	0.00	29.526 
18:30	67.6	67.6	67.6	90	64.6	2	5	248	0.00	29.530 
18:35	67.4	67.4	67.4	90	64.4	2	5	248	0.00	29.530 
18:40	67.4	67.4	67.4	90	64.4	3	6	248	0.00	29.530 
18:45	67.3	67.3	67.3	90	64.3	3	7	270	0.00	29.536 
18:50	67.4	67.4	67.4	90	64.4	3	6	270	0.00	29.536 
18:55	67.4	67.4	67.4	89	64.0	3	5	292	0.00	29.536 
19:00	67.6	67.6	67.6	89	64.2	3	5	248	0.00	29.543 
19:05	67.8	67.8	67.8	88	64.1	2	5	270	0.00	29.543 
19:10	67.8	67.8	67.8	88	64.1	2	4	270	0.00	29.543 
19:15	67.9	67.9	67.9	87	63.9	3	5	270	0.00	29.545 
19:20	67.9	67.9	67.9	87	63.9	3	6	270	0.00	29.545 
19:25	67.9	67.9	67.9	86	63.5	2	5	270	0.00	29.545 
19:30	67.9	67.9	67.9	87	63.9	2	7	315	0.00	29.547 
19:35	67.4	67.4	67.4	86	63.1	3	6	292	0.00	29.547 
19:40	66.8	66.8	66.8	86	62.5	2	6	270	0.00	29.547 
19:45	66.3	66.3	66.3	86	62.0	3	6	248	0.00	29.562 
19:50	66.0	66.0	66.0	87	62.0	3	6	270	0.01	29.562 
19:55	65.6	65.6	65.6	87	61.6	3	6	270	0.00	29.562 
20:00	65.3	65.3	65.3	87	61.3	3	7	315	0.00	29.571 
20:05	65.0	65.0	65.0	88	61.4	4	9	270	0.00	29.571 
20:10	64.5	64.5	64.5	88	60.9	4	7	270	0.00	29.571 
20:15	64.2	64.2	64.2	88	60.6	3	5	292	0.00	29.584 
20:20	63.7	63.7	63.7	87	59.8	5	10	270	0.00	29.584 
20:25	63.2	63.2	63.2	86	58.9	5	11	270	0.00	29.584 
20:30	62.6	62.6	62.6	86	58.3	4	10	315	0.00	29.590 
20:35	62.1	62.1	62.1	86	57.9	4	7	270	0.00	29.590 
20:40	61.8	61.8	61.8	86	57.6	3	9	270	0.00	29.590 
20:45	61.6	61.6	61.6	85	57.0	3	6	270	0.00	29.590 
20:50	61.5	61.5	61.5	85	56.9	2	5	292	0.00	29.590 
20:55	61.3	61.3	61.3	85	56.7	3	9	315	0.00	29.590 
21:00	61.3	61.3	61.3	85	56.7	3	6	270	0.00	29.599 
21:05	61.2	61.2	61.2	85	56.6	3	6	270	0.00	29.599 
21:10	61.0	61.0	61.0	85	56.5	2	5	270	0.00	29.599 
21:15	60.9	60.9	60.9	84	56.0	3	5	292	0.00	29.601 
21:20	60.9	60.9	60.9	84	56.0	3	5	292	0.00	29.601 
21:25	60.7	60.7	60.7	84	55.8	3	5	270	0.00	29.601 
21:30	60.5	60.5	60.5	84	55.6	3	6	315	0.00	29.603 
21:35	60.4	60.4	60.4	84	55.5	4	6	270	0.00	29.603 
21:40	60.2	60.2	60.2	84	55.3	3	6	292	0.00	29.603 
21:45	60.2	60.2	60.2	84	55.3	3	5	270	0.00	29.617 
21:50	60.1	60.1	60.1	84	55.2	2	4	270	0.00	29.617 
21:55	59.9	59.9	59.9	82	54.4	5	9	270	0.00	29.617 
22:00	59.8	59.8	59.8	82	54.3	3	7	292	0.00	29.622 
22:05	59.6	59.6	59.6	82	54.1	4	7	248	0.00	29.622 
22:10	59.5	59.5	59.5	82	54.0	3	6	270	0.00	29.622 
22:15	59.5	59.5	59.5	83	54.3	3	6	292	0.00	29.638 
22:20	59.3	59.3	59.3	83	54.1	3	6	270	0.00	29.638 
22:25	59.3	59.3	59.3	83	54.1	3	6	270	0.00	29.638 
22:30	59.2	59.2	59.2	83	54.0	3	6	270	0.00	29.645 
22:35	59.0	59.0	59.0	82	53.5	4	7	270	0.00	29.645 
22:40	58.9	58.9	58.9	81	53.1	4	9	270	0.00	29.645 
22:45	58.7	58.7	58.7	82	53.2	4	7	270	0.00	29.650 
22:50	58.4	58.4	58.4	82	52.9	3	9	270	0.00	29.650 
22:55	58.3	58.3	58.3	83	53.2	4	8	270	0.00	29.650 
23:00	58.1	58.1	58.1	84	53.3	3	6	270	0.00	29.651 
23:05	58.0	58.0	58.0	84	53.2	3	7	270	0.00	29.651 
23:10	57.8	57.8	57.8	84	53.0	4	11	270	0.00	29.651 
23:15	57.8	57.8	57.8	84	53.0	3	7	270	0.00	29.653 
23:20	57.6	57.6	57.6	85	53.1	4	7	315	0.00	29.653 
23:25	57.3	57.3	57.3	85	52.8	4	7	270	0.00	29.653 
23:30	57.2	57.2	57.2	85	52.7	5	12	270	0.00	29.654 
23:35	57.2	57.2	57.2	84	52.4	4	9	270	0.00	29.654 
23:40	57.2	57.2	57.2	83	52.1	3	8	270	0.00	29.654 
23:45	56.9	56.9	56.9	82	51.5	4	10	292	0.00	29.660 
23:50	56.7	56.7	56.7	81	50.9	3	9	270	0.00	29.660 
23:55	56.5	56.5	56.5	81	50.7	2	6	270	0.00	29.660 

CoCoRaHS
IN-AL-39
A2 Web Hosting
Creative Commons License
GoDaddy
search engine by freefind advanced

loaded 2018-11-17 00:39:42 • last modified 2010-11-18 10:43:29
Privacy PolicyDisclaimer
• wx.awcolley.com is powered by PmWiki v.2002016 •
• all content (unless otherwise noted) © 2018 A W Colley